Time;durP1;ratioP1;P1;durP2;ratioP2;P2;SDS_P1;SDS_P2;PMS_P1;PMS_P2;Temp;Humidity;BMP_temperature;BMP_pressure;BME280_temperature;BME280_humidity;BME280_pressure;Samples;Min_cycle;Max_cycle;Signal;HPM_P1;HPM_P2
2023/03/19 00:00:55;;;;;;;9.25;4.82;;;10.40;99.90;;;;;;6165782;28;20045;-77
2023/03/19 00:03:57;;;;;;;13.80;4.65;;;10.40;99.90;;;;;;6166004;28;20051;-79
2023/03/19 00:06:58;;;;;;;7.25;3.40;;;10.40;99.90;;;;;;6164942;28;20065;-81
2023/03/19 00:10:01;;;;;;;8.55;4.35;;;10.30;99.90;;;;;;6164425;28;20062;-80
2023/03/19 00:13:03;;;;;;;9.65;5.57;;;10.30;99.90;;;;;;6160229;28;20051;-80
2023/03/19 00:16:05;;;;;;;13.48;6.78;;;10.30;99.90;;;;;;6159029;28;20048;-80
2023/03/19 00:19:07;;;;;;;12.95;4.97;;;10.30;99.90;;;;;;6164047;28;20051;-79
2023/03/19 00:22:09;;;;;;;4.13;3.55;;;10.40;99.90;;;;;;6163321;28;20051;-79
2023/03/19 00:25:12;;;;;;;5.75;4.53;;;10.40;99.90;;;;;;6162271;28;20055;-78
2023/03/19 00:28:14;;;;;;;9.50;5.07;;;10.40;99.90;;;;;;6183857;28;20386;-78
2023/03/19 00:31:17;;;;;;;8.50;4.82;;;10.40;99.90;;;;;;6210735;28;20042;-79
2023/03/19 00:34:18;;;;;;;12.85;4.50;;;10.30;99.90;;;;;;6209117;28;20050;-78
2023/03/19 00:37:20;;;;;;;8.88;4.75;;;10.30;99.90;;;;;;6210777;28;20269;-79
2023/03/19 00:40:24;;;;;;;5.15;3.90;;;10.20;99.90;;;;;;6210057;28;20043;-79
2023/03/19 00:43:25;;;;;;;6.05;3.53;;;10.20;99.90;;;;;;6211213;28;20049;-78
2023/03/19 00:46:27;;;;;;;7.50;3.42;;;10.20;99.90;;;;;;6209923;28;20054;-79
2023/03/19 00:49:29;;;;;;;4.68;3.45;;;10.10;99.90;;;;;;6209420;28;20053;-79
2023/03/19 00:52:31;;;;;;;6.05;3.30;;;10.10;99.90;;;;;;6209636;28;20054;-78
2023/03/19 00:55:34;;;;;;;3.88;3.38;;;10.00;99.90;;;;;;6209073;28;20053;-79
2023/03/19 00:58:37;;;;;;;9.27;3.67;;;9.90;99.90;;;;;;6211217;28;20056;-79
2023/03/19 01:01:39;;;;;;;6.72;4.07;;;9.80;99.90;;;;;;6208582;28;20051;-79
2023/03/19 01:04:41;;;;;;;5.53;4.03;;;9.80;99.90;;;;;;6206722;28;20129;-79
2023/03/19 01:07:42;;;;;;;5.72;4.53;;;9.90;99.90;;;;;;6206975;28;20047;-79
2023/03/19 01:10:46;;;;;;;7.85;4.38;;;10.00;99.90;;;;;;6210145;28;20042;-79
2023/03/19 01:13:48;;;;;;;6.03;3.40;;;10.10;99.90;;;;;;6207724;28;20051;-78
2023/03/19 01:16:49;;;;;;;7.45;3.88;;;10.30;99.90;;;;;;6206993;28;20420;-79
2023/03/19 01:19:51;;;;;;;4.22;3.30;;;10.40;99.90;;;;;;6207412;28;20046;-79
2023/03/19 01:22:53;;;;;;;4.40;3.85;;;10.60;99.90;;;;;;6209225;28;20420;-79
2023/03/19 01:25:56;;;;;;;5.10;3.72;;;10.70;99.90;;;;;;6209380;28;20050;-79
2023/03/19 01:28:58;;;;;;;6.38;3.65;;;10.80;99.90;;;;;;6208471;28;20572;-79
2023/03/19 01:32:00;;;;;;;5.30;4.05;;;10.80;99.90;;;;;;6209264;28;20046;-78
2023/03/19 01:35:02;;;;;;;4.80;4.30;;;10.90;99.90;;;;;;6211878;28;20050;-78
2023/03/19 01:38:03;;;;;;;4.60;4.13;;;11.00;99.90;;;;;;6208712;28;20050;-79
2023/03/19 01:41:07;;;;;;;7.18;3.80;;;11.10;99.90;;;;;;6209461;28;20528;-80
2023/03/19 01:44:23;;;;;;;7.63;3.75;;;11.10;99.90;;;;;;6208504;28;20420;-79
2023/03/19 01:47:31;;;;;;;5.45;4.07;;;11.20;99.90;;;;;;6204452;28;20046;-79
2023/03/19 01:50:40;;;;;;;7.00;4.03;;;11.30;99.90;;;;;;6206444;28;20046;-79
2023/03/19 01:53:47;;;;;;;6.55;3.88;;;11.30;99.90;;;;;;6207120;28;20042;-79
2023/03/19 01:56:55;;;;;;;5.93;4.33;;;11.40;99.90;;;;;;6207706;28;20046;-79
2023/03/19 02:00:01;;;;;;;11.52;4.38;;;11.40;99.90;;;;;;6205965;28;20047;-79
2023/03/19 02:03:03;;;;;;;6.40;3.63;;;11.50;99.90;;;;;;6208425;28;20145;-79
2023/03/19 02:06:07;;;;;;;6.25;4.07;;;11.60;99.90;;;;;;6208261;28;20057;-79
2023/03/19 02:09:09;;;;;;;6.75;4.55;;;11.60;99.90;;;;;;6206855;28;20050;-79
2023/03/19 02:12:13;;;;;;;7.53;4.70;;;11.60;99.90;;;;;;6203916;28;20527;-80
2023/03/19 02:15:15;;;;;;;5.85;4.03;;;11.70;99.90;;;;;;6203262;28;22922;-80
2023/03/19 02:18:17;;;;;;;5.00;3.85;;;11.70;99.90;;;;;;6200782;28;20050;-80
2023/03/19 02:21:20;;;;;;;8.52;3.50;;;11.70;99.90;;;;;;6200606;28;20050;-77
2023/03/19 02:24:28;;;;;;;6.50;4.18;;;11.70;99.90;;;;;;6199845;28;20057;-79
2023/03/19 02:27:31;;;;;;;5.60;3.90;;;11.70;99.90;;;;;;6199807;28;20073;-80
2023/03/19 02:30:34;;;;;;;6.05;3.40;;;11.70;99.90;;;;;;6200707;28;20050;-80
2023/03/19 02:33:36;;;;;;;9.75;4.00;;;11.70;99.90;;;;;;6199194;28;20528;-78
2023/03/19 02:36:47;;;;;;;5.70;3.63;;;11.80;99.90;;;;;;6200064;28;20133;-79
2023/03/19 02:39:54;;;;;;;7.85;4.47;;;11.80;99.90;;;;;;6199388;28;20050;-80
2023/03/19 02:42:57;;;;;;;4.13;3.75;;;11.70;99.90;;;;;;6199454;28;20058;-78
2023/03/19 02:45:59;;;;;;;6.68;4.03;;;11.80;99.90;;;;;;6200155;28;20050;-77
2023/03/19 02:49:01;;;;;;;6.05;3.67;;;11.70;99.90;;;;;;6200492;28;20528;-78
2023/03/19 02:52:03;;;;;;;5.72;3.83;;;11.70;99.90;;;;;;6203970;28;20129;-79
2023/03/19 02:55:05;;;;;;;6.78;3.50;;;11.70;99.90;;;;;;6208341;28;20397;-78
2023/03/19 02:58:08;;;;;;;6.40;4.30;;;11.60;99.90;;;;;;6211062;28;20061;-79
2023/03/19 03:01:10;;;;;;;4.53;3.75;;;11.50;99.90;;;;;;6211207;28;20054;-79
2023/03/19 03:04:15;;;;;;;4.47;3.05;;;11.40;99.90;;;;;;6214491;28;20030;-79
2023/03/19 03:07:17;;;;;;;7.63;5.05;;;11.20;99.90;;;;;;6213662;28;20043;-77
2023/03/19 03:10:18;;;;;;;4.28;3.08;;;11.10;99.90;;;;;;6211956;28;20050;-79
2023/03/19 03:13:21;;;;;;;4.00;3.55;;;11.00;99.90;;;;;;6203684;28;20085;-79
2023/03/19 03:16:23;;;;;;;5.93;4.22;;;10.90;99.90;;;;;;6199188;28;20046;-78
2023/03/19 03:19:25;;;;;;;7.35;5.07;;;10.80;99.90;;;;;;6199180;28;20416;-79
2023/03/19 03:22:26;;;;;;;5.63;3.63;;;10.80;99.90;;;;;;6199731;28;20050;-79
2023/03/19 03:25:29;;;;;;;6.75;5.22;;;10.80;99.90;;;;;;6198789;28;20513;-79
2023/03/19 03:28:32;;;;;;;9.60;6.63;;;10.80;99.90;;;;;;6202396;28;20505;-79
2023/03/19 03:31:34;;;;;;;13.52;7.60;;;10.80;99.90;;;;;;6205434;28;20053;-78
2023/03/19 03:34:36;;;;;;;7.47;5.72;;;10.80;99.90;;;;;;6205415;28;20125;-80
2023/03/19 03:37:38;;;;;;;8.48;7.45;;;10.70;99.90;;;;;;6206477;28;20513;-78
2023/03/19 03:40:40;;;;;;;8.75;6.25;;;10.70;99.90;;;;;;6207435;28;20046;-78
2023/03/19 03:43:44;;;;;;;7.57;5.32;;;10.70;99.90;;;;;;6207043;28;20062;-79
2023/03/19 03:46:45;;;;;;;7.05;5.30;;;10.70;99.90;;;;;;6206749;28;20135;-79
2023/03/19 03:49:47;;;;;;;5.25;3.22;;;10.60;99.90;;;;;;6204457;28;20057;-79
2023/03/19 03:52:49;;;;;;;5.55;4.30;;;10.50;99.90;;;;;;6199972;28;20073;-79
2023/03/19 03:55:50;;;;;;;7.95;4.00;;;10.50;99.90;;;;;;6201358;28;20397;-79
2023/03/19 03:58:53;;;;;;;4.43;4.03;;;10.40;99.90;;;;;;6200622;28;20058;-78
2023/03/19 04:01:55;;;;;;;5.40;4.10;;;10.30;99.90;;;;;;6199630;28;20050;-79
2023/03/19 04:04:57;;;;;;;7.88;3.90;;;10.30;99.90;;;;;;6199494;28;20058;-80
2023/03/19 04:07:58;;;;;;;5.97;4.43;;;10.20;99.90;;;;;;6201248;28;20056;-79
2023/03/19 04:11:00;;;;;;;5.68;4.13;;;10.20;99.90;;;;;;6206296;28;20042;-78
2023/03/19 04:14:04;;;;;;;4.47;3.40;;;10.20;99.90;;;;;;6209510;28;20054;-79
2023/03/19 04:17:06;;;;;;;4.43;3.72;;;10.10;99.90;;;;;;6206250;28;20472;-80
2023/03/19 04:20:09;;;;;;;6.93;4.07;;;10.00;99.90;;;;;;6206353;28;20056;-79
2023/03/19 04:23:11;;;;;;;4.32;3.85;;;9.90;99.90;;;;;;6203323;28;20074;-79
2023/03/19 04:26:13;;;;;;;4.65;3.72;;;9.90;99.90;;;;;;6206654;28;20047;-78
2023/03/19 04:29:17;;;;;;;9.77;4.40;;;9.80;99.90;;;;;;6204819;28;20047;-79
2023/03/19 04:32:19;;;;;;;5.95;3.70;;;9.80;99.90;;;;;;6204751;28;20043;-79
2023/03/19 04:35:21;;;;;;;6.80;4.03;;;9.80;99.90;;;;;;6208218;28;20042;-79
2023/03/19 04:38:25;;;;;;;5.82;3.80;;;9.70;99.90;;;;;;6215286;28;20061;-78
2023/03/19 04:41:26;;;;;;;6.72;4.10;;;9.70;99.90;;;;;;6211444;28;20069;-79
2023/03/19 04:44:30;;;;;;;5.43;3.92;;;9.70;99.90;;;;;;6208176;28;20053;-79
2023/03/19 04:47:32;;;;;;;5.43;3.83;;;9.70;99.90;;;;;;6208777;28;20603;-79
2023/03/19 04:50:33;;;;;;;6.80;3.97;;;9.70;99.90;;;;;;6208626;28;20057;-78
2023/03/19 04:53:35;;;;;;;7.47;4.90;;;9.70;99.90;;;;;;6209020;28;20061;-79
2023/03/19 04:56:37;;;;;;;5.93;4.22;;;9.70;99.90;;;;;;6208448;28;20057;-78
2023/03/19 04:59:40;;;;;;;3.95;3.47;;;9.60;99.90;;;;;;6208847;28;20046;-79
2023/03/19 05:02:42;;;;;;;3.10;2.80;;;9.60;99.90;;;;;;6209677;28;20050;-79
2023/03/19 05:05:44;;;;;;;5.97;3.78;;;9.70;99.90;;;;;;6210456;28;20069;-79
2023/03/19 05:08:47;;;;;;;4.55;3.47;;;9.70;99.90;;;;;;6210142;28;20125;-79
2023/03/19 05:11:49;;;;;;;6.32;5.03;;;9.70;99.90;;;;;;6209596;28;20051;-80
2023/03/19 05:14:52;;;;;;;4.30;3.60;;;9.60;99.90;;;;;;6205717;28;20061;-79
2023/03/19 05:17:53;;;;;;;5.28;3.30;;;9.60;99.90;;;;;;6203877;28;20061;-78
2023/03/19 05:20:55;;;;;;;7.15;3.92;;;9.60;99.90;;;;;;6202171;28;20049;-78
2023/03/19 05:23:57;;;;;;;8.82;4.18;;;9.60;99.90;;;;;;6203333;28;20054;-79
2023/03/19 05:26:59;;;;;;;5.70;3.65;;;9.60;99.90;;;;;;6203634;28;20384;-78
2023/03/19 05:30:02;;;;;;;8.93;4.40;;;9.60;99.90;;;;;;6204516;28;20050;-79
2023/03/19 05:33:04;;;;;;;3.42;3.13;;;9.50;99.90;;;;;;6204504;28;20054;-79
2023/03/19 05:36:06;;;;;;;4.90;3.40;;;9.50;99.90;;;;;;6205561;28;20046;-79
2023/03/19 05:39:08;;;;;;;6.43;4.07;;;9.50;99.90;;;;;;6204516;28;20073;-79
2023/03/19 05:42:11;;;;;;;11.05;8.65;;;9.50;99.90;;;;;;6205098;28;20116;-78
2023/03/19 05:45:15;;;;;;;5.43;4.07;;;9.50;99.90;;;;;;6207929;28;20516;-78
2023/03/19 05:48:17;;;;;;;6.80;3.95;;;9.60;99.90;;;;;;6209752;28;20049;-79
2023/03/19 05:51:18;;;;;;;8.15;4.10;;;9.50;99.90;;;;;;6209168;28;20046;-79
2023/03/19 05:54:20;;;;;;;4.20;3.35;;;9.60;99.90;;;;;;6208729;28;20126;-79
2023/03/19 05:57:22;;;;;;;4.03;3.53;;;9.60;99.90;;;;;;6208619;28;20061;-79
2023/03/19 06:00:25;;;;;;;4.82;3.85;;;9.60;99.90;;;;;;6208605;28;20049;-80
2023/03/19 06:03:27;;;;;;;10.18;4.03;;;9.60;99.90;;;;;;6203629;28;20046;-79
2023/03/19 06:06:29;;;;;;;7.13;4.93;;;9.70;99.90;;;;;;6204456;28;20046;-79
2023/03/19 06:09:30;;;;;;;6.70;4.05;;;9.70;99.90;;;;;;6204668;28;20393;-79
2023/03/19 06:12:32;;;;;;;5.78;3.63;;;9.70;99.90;;;;;;6203602;28;20054;-78
2023/03/19 06:15:36;;;;;;;6.03;4.03;;;9.70;99.90;;;;;;6203514;28;20050;-79
2023/03/19 06:18:37;;;;;;;4.68;3.47;;;9.70;99.90;;;;;;6204166;28;20489;-79
2023/03/19 06:21:39;;;;;;;9.23;4.72;;;9.80;99.90;;;;;;6204057;28;20038;-79
2023/03/19 06:24:41;;;;;;;7.10;3.10;;;9.80;99.90;;;;;;6207743;28;20121;-79
2023/03/19 06:27:43;;;;;;;4.68;3.63;;;9.90;99.90;;;;;;6208413;28;20065;-79
2023/03/19 06:30:46;;;;;;;5.15;3.47;;;9.90;99.90;;;;;;6205743;28;20053;-80
2023/03/19 06:33:49;;;;;;;10.77;3.80;;;9.90;99.90;;;;;;6203492;28;20046;-78
2023/03/19 06:36:53;;;;;;;10.90;3.60;;;10.00;99.90;;;;;;6204008;28;20050;-79
2023/03/19 06:39:54;;;;;;;6.30;3.53;;;10.00;99.90;;;;;;6203552;28;20493;-80
2023/03/19 06:42:56;;;;;;;9.73;4.05;;;10.10;99.90;;;;;;6207338;28;20054;-80
2023/03/19 06:45:59;;;;;;;4.95;4.10;;;10.20;99.90;;;;;;6208383;28;20050;-80
2023/03/19 06:49:01;;;;;;;6.50;4.38;;;10.40;99.90;;;;;;6208195;28;20053;-81
2023/03/19 06:52:03;;;;;;;9.57;7.15;;;10.50;99.90;;;;;;6207893;28;20046;-79
2023/03/19 06:55:06;;;;;;;9.02;3.88;;;10.60;99.90;;;;;;6205424;28;20497;-79
2023/03/19 06:58:08;;;;;;;7.25;4.80;;;10.70;99.90;;;;;;6203417;28;20054;-79
2023/03/19 07:01:11;;;;;;;5.97;4.45;;;10.90;99.90;;;;;;6204611;28;20050;-79
2023/03/19 07:04:13;;;;;;;4.47;3.13;;;11.00;99.90;;;;;;6211769;28;20058;-79
2023/03/19 07:07:14;;;;;;;10.90;3.42;;;11.10;99.90;;;;;;6211752;28;20065;-79
2023/03/19 07:10:18;;;;;;;5.78;4.40;;;11.20;99.90;;;;;;6211515;28;20061;-79
2023/03/19 07:13:21;;;;;;;7.65;4.65;;;11.30;99.90;;;;;;6211977;28;20049;-79
2023/03/19 07:16:24;;;;;;;6.10;4.03;;;11.40;99.90;;;;;;6210432;28;20061;-79
2023/03/19 07:19:26;;;;;;;4.57;4.10;;;11.40;99.90;;;;;;6212094;28;20057;-79
2023/03/19 07:22:28;;;;;;;6.05;4.00;;;11.60;99.90;;;;;;6212525;28;20046;-79
2023/03/19 07:25:30;;;;;;;7.78;3.80;;;11.60;99.90;;;;;;6208718;28;20038;-79
2023/03/19 07:28:32;;;;;;;7.20;3.85;;;11.60;99.90;;;;;;6211850;28;20477;-79
2023/03/19 07:32:12;;;;;;;5.32;3.55;;;11.70;99.90;;;;;;6198604;28;20087;-79
2023/03/19 07:39:07;;;;;;;6.40;5.05;;;12.10;99.90;;;;;;6210416;28;20556;-78
2023/03/19 07:42:09;;;;;;;7.32;3.90;;;12.20;99.90;;;;;;6215770;28;20101;-79
2023/03/19 07:45:11;;;;;;;6.30;3.42;;;12.40;99.90;;;;;;6186738;28;20054;-79
2023/03/19 07:48:14;;;;;;;4.90;3.33;;;12.60;99.90;;;;;;6215028;28;20440;-79
2023/03/19 07:51:15;;;;;;;4.43;3.42;;;12.80;99.90;;;;;;6213695;28;20080;-79
2023/03/19 07:54:18;;;;;;;5.85;3.83;;;13.00;99.90;;;;;;6203243;28;20424;-77
2023/03/19 07:57:26;;;;;;;9.23;4.43;;;13.20;99.90;;;;;;6207818;28;20065;-77
2023/03/19 08:00:27;;;;;;;4.97;4.40;;;13.40;99.90;;;;;;6204346;28;20404;-78
2023/03/19 08:03:31;;;;;;;5.50;3.80;;;13.70;99.90;;;;;;6202298;28;20046;-77
2023/03/19 08:06:33;;;;;;;6.43;3.70;;;14.00;99.90;;;;;;6202340;28;20416;-77
2023/03/19 08:09:34;;;;;;;3.78;3.47;;;14.30;99.90;;;;;;6202577;28;20532;-77
2023/03/19 08:12:39;;;;;;;5.10;3.28;;;14.80;99.90;;;;;;6202611;28;20049;-77
2023/03/19 08:15:41;;;;;;;6.97;4.38;;;15.40;99.90;;;;;;6202160;28;20043;-77
2023/03/19 08:18:44;;;;;;;6.82;3.42;;;16.30;99.90;;;;;;6205031;28;20050;-77
2023/03/19 08:21:46;;;;;;;3.80;2.78;;;17.30;99.90;;;;;;6203773;28;20050;-78
2023/03/19 08:24:49;;;;;;;5.95;2.80;;;18.10;99.40;;;;;;6204272;28;20050;-78
2023/03/19 08:27:51;;;;;;;6.05;3.28;;;18.80;97.50;;;;;;6203178;28;20057;-78
2023/03/19 08:30:54;;;;;;;9.05;8.25;;;19.40;96.00;;;;;;6203614;28;20048;-77
2023/03/19 08:33:59;;;;;;;10.32;9.32;;;19.60;94.10;;;;;;6203835;28;20056;-78
2023/03/19 08:37:00;;;;;;;3.50;3.05;;;19.80;92.30;;;;;;6202502;28;20073;-80
2023/03/19 08:40:03;;;;;;;5.70;2.65;;;19.70;90.60;;;;;;6204021;28;20069;-77
2023/03/19 08:43:05;;;;;;;7.57;5.38;;;19.70;89.70;;;;;;6187559;28;20093;-77
2023/03/19 08:46:07;;;;;;;3.80;3.42;;;19.60;87.90;;;;;;6194487;28;20512;-77
2023/03/19 08:49:10;;;;;;;3.78;3.00;;;19.60;87.40;;;;;;6194639;28;20062;-78
2023/03/19 08:52:13;;;;;;;11.50;3.00;;;20.10;86.20;;;;;;6192534;28;20038;-77
2023/03/19 08:55:18;;;;;;;2.38;2.00;;;20.60;83.80;;;;;;6184468;28;20042;-78
2023/03/19 08:58:28;;;;;;;6.40;2.63;;;20.60;81.60;;;;;;6192546;28;20054;-78
2023/03/19 09:01:31;;;;;;;4.72;2.70;;;20.20;79.30;;;;;;6191827;28;20133;-78
2023/03/19 09:04:42;;;;;;;6.88;2.63;;;19.80;78.30;;;;;;6174604;28;20516;-78
2023/03/19 09:07:45;;;;;;;5.30;1.98;;;19.50;77.10;;;;;;6195483;28;20054;-77
2023/03/19 09:10:56;;;;;;;5.97;2.60;;;19.10;76.30;;;;;;6194789;28;20073;-77
2023/03/19 09:17:22;;;;;;;3.10;2.20;;;18.30;77.30;;;;;;6192793;28;20046;-78
2023/03/19 09:20:26;;;;;;;4.93;3.75;;;18.30;77.70;;;;;;6191738;28;20527;-76
2023/03/19 09:23:27;;;;;;;6.32;2.83;;;18.40;77.40;;;;;;6190682;28;20061;-77
2023/03/19 09:26:30;;;;;;;4.82;2.90;;;18.40;77.60;;;;;;6195622;28;20064;-79
2023/03/19 09:29:31;;;;;;;4.68;2.05;;;18.80;76.80;;;;;;6193433;28;20497;-78
2023/03/19 09:32:33;;;;;;;4.63;2.97;;;18.70;76.00;;;;;;6193065;28;20073;-78
2023/03/19 09:35:38;;;;;;;2.78;2.05;;;18.50;75.70;;;;;;6193122;28;20050;-81
2023/03/19 09:38:40;;;;;;;4.15;2.30;;;18.40;75.20;;;;;;6191956;28;20054;-76
2023/03/19 09:42:07;;;;;;;8.18;2.08;;;18.70;75.90;;;;;;6194578;28;20050;-79
2023/03/19 09:45:14;;;;;;;6.07;1.98;;;19.10;74.00;;;;;;6192705;28;20045;-76
2023/03/19 09:48:27;;;;;;;3.17;2.40;;;19.40;73.60;;;;;;6193413;28;20047;-78
2023/03/19 09:51:38;;;;;;;5.40;1.85;;;19.70;72.40;;;;;;6192598;28;20262;-78
2023/03/19 09:54:47;;;;;;;5.85;2.35;;;19.80;70.30;;;;;;6195126;28;20046;-78
2023/03/19 09:57:48;;;;;;;3.55;2.08;;;19.50;69.70;;;;;;6195699;28;20504;-78
2023/03/19 10:00:53;;;;;;;3.00;1.85;;;19.50;69.90;;;;;;6195728;28;20046;-77
2023/03/19 10:04:12;;;;;;;4.47;2.35;;;19.90;69.70;;;;;;6194866;28;20172;-77
2023/03/19 10:07:29;;;;;;;4.82;2.22;;;20.20;68.60;;;;;;6194148;28;20058;-78
2023/03/19 10:10:45;;;;;;;3.25;2.28;;;20.50;68.10;;;;;;6196343;28;20069;-77
2023/03/19 10:13:59;;;;;;;4.25;2.38;;;20.50;67.00;;;;;;6192634;28;20501;-77
2023/03/19 10:17:03;;;;;;;3.42;2.03;;;20.20;66.80;;;;;;6192741;28;20088;-78
2023/03/19 10:20:13;;;;;;;2.70;1.90;;;20.00;66.90;;;;;;6194749;28;20050;-79
2023/03/19 10:23:30;;;;;;;3.63;2.30;;;20.20;66.30;;;;;;6194543;28;20053;-78
2023/03/19 10:26:34;;;;;;;3.08;1.90;;;20.30;66.70;;;;;;6193738;28;20061;-78
2023/03/19 10:29:36;;;;;;;4.20;1.70;;;20.60;66.90;;;;;;6193147;28;20066;-78
2023/03/19 10:32:41;;;;;;;3.38;1.90;;;20.90;67.00;;;;;;6192879;28;21563;-78
2023/03/19 10:35:44;;;;;;;4.53;2.13;;;21.30;66.00;;;;;;6194714;28;20050;-78
2023/03/19 10:38:54;;;;;;;6.72;2.20;;;21.40;65.80;;;;;;6194213;28;20066;-78
2023/03/19 10:42:09;;;;;;;4.40;1.98;;;21.90;65.20;;;;;;6191774;28;20046;-78
2023/03/19 10:45:21;;;;;;;4.85;2.20;;;22.00;64.30;;;;;;6190730;28;20054;-78
2023/03/19 10:48:26;;;;;;;8.38;2.55;;;21.50;63.50;;;;;;6191913;28;20134;-78
2023/03/19 10:51:28;;;;;;;4.90;2.00;;;21.00;63.60;;;;;;6191431;28;20506;-77
2023/03/19 10:54:31;;;;;;;4.65;2.20;;;20.50;64.00;;;;;;6198536;28;20054;-78
2023/03/19 10:57:33;;;;;;;5.13;1.80;;;20.20;65.10;;;;;;6200646;28;20050;-79
2023/03/19 11:00:35;;;;;;;4.93;2.35;;;20.30;65.30;;;;;;6201893;28;20042;-79
2023/03/19 11:03:39;;;;;;;6.28;5.05;;;20.10;64.80;;;;;;6201512;28;20053;-79
2023/03/19 11:06:41;;;;;;;11.75;8.15;;;20.00;65.50;;;;;;6201300;28;20057;-78
2023/03/19 11:09:46;;;;;;;16.30;13.35;;;20.10;65.90;;;;;;6200904;28;20124;-78
2023/03/19 11:12:54;;;;;;;5.20;2.65;;;20.00;65.50;;;;;;6200810;28;20090;-78
2023/03/19 11:15:59;;;;;;;3.55;2.88;;;19.80;65.60;;;;;;6200732;28;20046;-78
2023/03/19 11:19:01;;;;;;;6.60;3.42;;;19.60;66.50;;;;;;6200524;28;20055;-79
2023/03/19 11:22:13;;;;;;;3.65;2.70;;;19.60;66.80;;;;;;6201059;28;20067;-79
2023/03/19 11:25:18;;;;;;;4.93;3.15;;;19.50;66.90;;;;;;6201289;28;20331;-78
2023/03/19 11:28:23;;;;;;;4.68;2.83;;;19.50;67.30;;;;;;6212497;28;20049;-80
2023/03/19 11:31:32;;;;;;;9.35;2.83;;;19.60;67.50;;;;;;6217004;28;20065;-79
2023/03/19 11:34:43;;;;;;;3.90;2.78;;;20.00;67.70;;;;;;6203160;28;20077;-79
2023/03/19 11:37:54;;;;;;;6.50;2.85;;;20.30;67.50;;;;;;6197723;28;20400;-78
2023/03/19 11:41:05;;;;;;;7.43;3.92;;;20.70;67.30;;;;;;6193945;28;20164;-78
2023/03/19 11:44:14;;;;;;;6.90;4.97;;;21.00;66.80;;;;;;6192860;28;20054;-78
2023/03/19 11:47:27;;;;;;;3.25;2.60;;;21.10;66.10;;;;;;6189166;28;20555;-78
2023/03/19 11:50:39;;;;;;;5.47;2.72;;;21.10;65.60;;;;;;6193809;28;20059;-77
2023/03/19 11:53:58;;;;;;;4.18;2.42;;;20.90;65.70;;;;;;6191991;28;20053;-78
2023/03/19 11:57:08;;;;;;;5.47;2.20;;;20.60;65.50;;;;;;6193153;28;20045;-78
2023/03/19 12:00:22;;;;;;;5.47;2.35;;;20.10;66.00;;;;;;6193766;28;20050;-79
2023/03/19 12:04:16;;;;;;;4.53;2.80;;;19.90;66.60;;;;;;6193036;28;20053;-78
2023/03/19 12:07:25;;;;;;;6.72;2.67;;;19.80;66.30;;;;;;6143485;28;20050;-78
2023/03/19 12:10:41;;;;;;;5.72;5.03;;;19.60;66.60;;;;;;6147211;28;20059;-77
2023/03/19 12:14:13;;;;;;;5.40;3.72;;;19.60;66.70;;;;;;6194191;28;20440;-78
2023/03/19 12:17:33;;;;;;;2.97;2.42;;;19.50;67.10;;;;;;6194089;28;20069;-78
2023/03/19 12:20:52;;;;;;;3.75;2.78;;;19.40;67.00;;;;;;6193332;28;20049;-78
2023/03/19 12:24:03;;;;;;;5.20;2.83;;;19.30;67.20;;;;;;6193449;28;20046;-78
2023/03/19 12:27:26;;;;;;;4.93;3.08;;;19.20;67.30;;;;;;6191714;28;20049;-77
2023/03/19 12:30:36;;;;;;;6.75;2.45;;;18.90;67.40;;;;;;6203626;28;20058;-79
2023/03/19 12:33:46;;;;;;;4.95;2.75;;;18.70;67.80;;;;;;6207007;28;20042;-79
2023/03/19 12:36:54;;;;;;;4.63;2.70;;;18.40;68.40;;;;;;6208243;28;20074;-78
2023/03/19 12:40:15;;;;;;;4.75;2.80;;;18.40;69.00;;;;;;6207126;28;20051;-79
2023/03/19 12:43:22;;;;;;;3.42;2.72;;;18.50;69.30;;;;;;6205588;28;20057;-79
2023/03/19 12:46:30;;;;;;;5.10;2.37;;;18.50;69.10;;;;;;6205421;28;20506;-78
2023/03/19 12:49:37;;;;;;;6.38;3.17;;;18.50;69.40;;;;;;6204200;28;20053;-78
2023/03/19 12:52:44;;;;;;;10.00;3.43;;;18.50;70.00;;;;;;6202285;28;20046;-80
2023/03/19 12:55:54;;;;;;;5.22;2.80;;;18.50;70.10;;;;;;6204446;28;20054;-79
2023/03/19 12:59:00;;;;;;;5.20;3.00;;;18.50;70.10;;;;;;6202246;28;20054;-78
2023/03/19 13:02:12;;;;;;;7.03;2.67;;;18.40;70.90;;;;;;6204150;28;20058;-78
2023/03/19 13:05:24;;;;;;;7.55;4.15;;;18.20;72.40;;;;;;6202020;28;20089;-77
2023/03/19 13:08:31;;;;;;;7.97;3.63;;;18.10;73.10;;;;;;6201869;28;20038;-79
2023/03/19 13:11:44;;;;;;;5.78;3.55;;;17.90;73.30;;;;;;6203607;28;20046;-78
2023/03/19 13:14:56;;;;;;;4.38;2.85;;;17.90;73.40;;;;;;6204378;28;20390;-78
2023/03/19 13:18:12;;;;;;;8.15;3.92;;;17.80;73.30;;;;;;6198279;28;20377;-78
2023/03/19 13:21:23;;;;;;;5.38;3.58;;;17.70;73.90;;;;;;6196669;28;20054;-78
2023/03/19 13:24:27;;;;;;;12.75;11.60;;;17.60;74.30;;;;;;6195113;28;20054;-78
2023/03/19 13:27:32;;;;;;;5.70;4.18;;;17.50;74.90;;;;;;6196007;28;20140;-78
2023/03/19 13:30:34;;;;;;;8.40;4.15;;;17.50;75.40;;;;;;6198104;28;20042;-79
2023/03/19 13:33:39;;;;;;;4.30;3.90;;;17.60;75.70;;;;;;6199750;28;20051;-77
2023/03/19 13:36:41;;;;;;;6.05;4.07;;;17.60;76.40;;;;;;6197225;28;20061;-77
2023/03/19 13:39:47;;;;;;;7.70;4.68;;;17.70;76.80;;;;;;6196066;28;20046;-77
2023/03/19 13:43:05;;;;;;;8.68;4.93;;;17.90;76.80;;;;;;6198625;28;20129;-77
2023/03/19 13:46:43;;;;;;;8.57;4.15;;;18.00;76.70;;;;;;6192902;28;20078;-77
2023/03/19 13:50:14;;;;;;;6.53;5.00;;;18.10;76.70;;;;;;6193834;28;20069;-78
2023/03/19 13:57:33;;;;;;;7.82;3.90;;;18.20;76.80;;;;;;6189089;28;20038;-76
2023/03/19 14:00:57;;;;;;;9.23;4.30;;;18.20;77.00;;;;;;6196130;28;20054;-79
2023/03/19 14:04:00;;;;;;;7.18;4.82;;;18.30;77.30;;;;;;6198904;28;20054;-78
2023/03/19 14:07:15;;;;;;;4.13;3.67;;;18.40;77.30;;;;;;6193869;28;20157;-77
2023/03/19 14:10:24;;;;;;;8.52;5.60;;;18.60;77.50;;;;;;6194497;28;20053;-78
2023/03/19 14:13:31;;;;;;;6.00;4.60;;;18.60;77.30;;;;;;6191614;28;20124;-78
2023/03/19 14:16:38;;;;;;;8.32;4.10;;;18.80;77.40;;;;;;6189923;28;20062;-78
2023/03/19 14:19:42;;;;;;;7.03;4.20;;;18.80;77.30;;;;;;6191944;28;20053;-77
2023/03/19 14:26:46;;;;;;;5.03;3.33;;;18.60;77.80;;;;;;6192883;28;20058;-77
2023/03/19 14:29:50;;;;;;;5.40;3.70;;;18.50;78.00;;;;;;6193270;28;20051;-77
2023/03/19 14:33:04;;;;;;;4.03;3.38;;;18.40;78.00;;;;;;6191793;28;20093;-77
2023/03/19 14:36:08;;;;;;;3.28;2.17;;;18.30;78.50;;;;;;6190581;28;20141;-77
2023/03/19 14:39:20;;;;;;;2.88;2.10;;;18.10;78.50;;;;;;6191685;28;20077;-76
2023/03/19 14:42:27;;;;;;;6.45;3.75;;;18.00;79.00;;;;;;6192063;28;20050;-76
2023/03/19 14:45:46;;;;;;;3.55;2.53;;;17.90;79.20;;;;;;6191188;28;20540;-77
2023/03/19 14:49:26;;;;;;;5.60;3.13;;;17.80;79.50;;;;;;6189231;28;20132;-78
2023/03/19 14:52:34;;;;;;;5.50;3.88;;;17.80;79.40;;;;;;6190745;28;20144;-77
2023/03/19 15:07:54;;;;;;;7.30;3.63;;;17.70;80.60;;;;;;6169765;28;20072;-80
2023/03/19 15:54:23;;;;;;;7.15;4.38;;;17.50;80.70;;;;;;6187972;28;20049;-79
2023/03/19 15:57:38;;;;;;;5.57;3.35;;;17.40;81.00;;;;;;6203407;28;20668;-79
2023/03/19 16:00:51;;;;;;;6.72;3.88;;;17.30;81.30;;;;;;6176533;28;20066;-80
2023/03/19 16:03:58;;;;;;;7.50;3.47;;;17.10;82.10;;;;;;6196874;28;20173;-78
2023/03/19 16:07:40;;;;;;;4.40;3.27;;;16.70;84.30;;;;;;6187602;28;20576;-81
2023/03/19 16:11:03;;;;;;;6.75;3.20;;;16.20;86.90;;;;;;6198949;28;20305;-80
2023/03/19 16:14:11;;;;;;;8.13;2.45;;;15.50;89.30;;;;;;6183205;28;20055;-78
2023/03/19 16:21:10;;;;;;;6.32;2.38;;;14.10;92.60;;;;;;6139350;28;20154;-80
2023/03/19 16:24:48;;;;;;;5.57;2.78;;;13.40;94.20;;;;;;6136963;28;20581;-79
2023/03/19 16:31:32;;;;;;;2.60;1.90;;;12.70;96.90;;;;;;6121384;28;23512;-77
2023/03/19 16:35:13;;;;;;;3.13;1.67;;;12.70;98.00;;;;;;6199773;28;20054;-78
2023/03/19 16:42:52;;;;;;;1.55;1.38;;;12.40;99.90;;;;;;6197492;28;20054;-78
2023/03/19 16:46:15;;;;;;;1.63;1.52;;;12.30;99.90;;;;;;6145592;28;20047;-79
2023/03/19 17:21:25;;;;;;;4.40;2.25;;;12.20;99.90;;;;;;6205237;23;20096;-80
2023/03/19 17:28:31;;;;;;;2.95;2.30;;;12.10;99.90;;;;;;6158389;28;20509;-77
2023/03/19 17:31:33;;;;;;;2.53;2.33;;;12.00;99.90;;;;;;6166091;28;20121;-77
2023/03/19 17:34:36;;;;;;;6.25;3.03;;;12.00;99.90;;;;;;6165960;28;20051;-78
2023/03/19 17:37:39;;;;;;;4.82;3.63;;;12.00;99.90;;;;;;6165640;28;20050;-77
2023/03/19 17:40:40;;;;;;;5.32;3.33;;;12.10;99.90;;;;;;6166611;28;20070;-78
2023/03/19 17:43:44;;;;;;;4.10;3.38;;;12.40;99.90;;;;;;6165485;28;20051;-78
2023/03/19 17:46:48;;;;;;;8.38;5.40;;;12.50;99.90;;;;;;6165223;28;20062;-77
2023/03/19 17:49:50;;;;;;;6.65;3.05;;;12.60;99.90;;;;;;6166097;28;20051;-78
2023/03/19 17:52:52;;;;;;;3.60;3.30;;;12.60;99.90;;;;;;6165017;28;20056;-78
2023/03/19 17:55:54;;;;;;;5.57;2.97;;;12.30;99.90;;;;;;6166753;28;20054;-77
2023/03/19 17:58:57;;;;;;;4.47;2.58;;;12.10;99.90;;;;;;6165706;28;20051;-78
2023/03/19 18:01:58;;;;;;;5.82;3.05;;;11.90;99.90;;;;;;6164371;28;20055;-78
2023/03/19 18:05:00;;;;;;;5.60;3.17;;;11.70;99.90;;;;;;6164242;28;20070;-78
2023/03/19 18:08:02;;;;;;;6.82;2.80;;;11.50;99.90;;;;;;6164163;28;20069;-79